Time;durP1;ratioP1;P1;durP2;ratioP2;P2;SDS_P1;SDS_P2;PMS_P1;PMS_P2;Temp;Humidity;BMP_temperature;BMP_pressure;BME280_temperature;BME280_humidity;BME280_pressure;Samples;Min_cycle;Max_cycle;Signal;HPM_P1;HPM_P2
2022/06/06 00:00:51;;;;;;;14.40;9.15;;;;;;;;;;5050705;28;20052;-56
2022/06/06 00:03:19;;;;;;;22.38;11.25;;;;;;;;;;5058777;28;20123;-55
2022/06/06 00:05:45;;;;;;;22.27;13.77;;;;;;;;;;5070359;28;20052;-56
2022/06/06 00:08:12;;;;;;;19.15;10.25;;;;;;;;;;5049309;28;20578;-56
2022/06/06 00:10:39;;;;;;;19.98;11.50;;;;;;;;;;5055189;28;20048;-55
2022/06/06 00:13:06;;;;;;;18.35;12.32;;;;;;;;;;5060530;28;20057;-56
2022/06/06 00:15:32;;;;;;;21.58;13.73;;;;;;;;;;5073812;28;20048;-55
2022/06/06 00:17:58;;;;;;;22.80;14.38;;;;;;;;;;5049077;28;20048;-55
2022/06/06 00:20:25;;;;;;;21.70;12.70;;;;;;;;;;5057147;28;20044;-56
2022/06/06 00:22:51;;;;;;;20.63;13.02;;;;;;;;;;5054902;28;20049;-56
2022/06/06 00:25:17;;;;;;;19.92;11.65;;;;;;;;;;5071239;28;20056;-56
2022/06/06 00:27:43;;;;;;;17.92;11.90;;;;;;;;;;5074922;28;20067;-55
2022/06/06 00:30:09;;;;;;;23.27;12.20;;;;;;;;;;5074195;28;20456;-55
2022/06/06 00:35:20;;;;;;;21.70;12.00;;;;;;;;;;5061504;28;20052;-56
2022/06/06 00:37:47;;;;;;;17.90;11.73;;;;;;;;;;5072631;28;20136;-55
2022/06/06 00:40:14;;;;;;;20.08;10.80;;;;;;;;;;5039984;28;20048;-56
2022/06/06 00:42:42;;;;;;;13.85;8.82;;;;;;;;;;5039150;28;20047;-55
2022/06/06 00:45:26;;;;;;;15.40;9.88;;;;;;;;;;5074332;28;20498;-55
2022/06/06 00:47:55;;;;;;;19.95;11.38;;;;;;;;;;5072284;28;20044;-55
2022/06/06 00:50:22;;;;;;;22.73;10.90;;;;;;;;;;5074331;28;20048;-55
2022/06/06 00:52:50;;;;;;;17.42;10.60;;;;;;;;;;5069696;28;20491;-56
2022/06/06 00:55:18;;;;;;;16.75;10.95;;;;;;;;;;5056707;28;20123;-55
2022/06/06 00:57:51;;;;;;;15.65;9.82;;;;;;;;;;5073041;28;20496;-55
2022/06/06 01:00:18;;;;;;;24.73;12.75;;;;;;;;;;5073284;28;20107;-55
2022/06/06 01:02:46;;;;;;;20.98;11.68;;;;;;;;;;5072441;28;20033;-56
2022/06/06 01:05:12;;;;;;;18.15;10.60;;;;;;;;;;5071760;28;20503;-56
2022/06/06 01:07:38;;;;;;;17.80;10.10;;;;;;;;;;5073802;28;20060;-56
2022/06/06 01:10:04;;;;;;;16.27;8.50;;;;;;;;;;5071448;28;20040;-55
2022/06/06 01:12:32;;;;;;;14.65;10.40;;;;;;;;;;5056007;28;20400;-55
2022/06/06 01:14:59;;;;;;;14.98;10.35;;;;;;;;;;5072297;28;20053;-55
2022/06/06 01:17:34;;;;;;;17.45;10.68;;;;;;;;;;5073749;28;20049;-55
2022/06/06 01:20:03;;;;;;;18.25;10.13;;;;;;;;;;5071560;28;20040;-56
2022/06/06 01:22:50;;;;;;;16.30;10.27;;;;;;;;;;5071821;28;20084;-55
2022/06/06 01:25:16;;;;;;;17.48;9.90;;;;;;;;;;5066819;28;20078;-55
2022/06/06 01:28:01;;;;;;;15.43;10.05;;;;;;;;;;5073613;28;20051;-55
2022/06/06 01:30:39;;;;;;;18.67;10.52;;;;;;;;;;5071449;28;20051;-55
2022/06/06 01:33:08;;;;;;;16.85;10.63;;;;;;;;;;5094947;22;20065;-55
2022/06/06 01:35:36;;;;;;;18.23;11.13;;;;;;;;;;5092485;22;20459;-56
2022/06/06 01:38:03;;;;;;;20.92;11.02;;;;;;;;;;5086077;22;20143;-56
2022/06/06 01:40:32;;;;;;;13.38;9.18;;;;;;;;;;5072760;28;20124;-55
2022/06/06 01:43:20;;;;;;;15.20;10.10;;;;;;;;;;5070769;28;20074;-55
2022/06/06 01:45:46;;;;;;;16.38;11.00;;;;;;;;;;5070092;28;20047;-56
2022/06/06 01:48:14;;;;;;;22.95;10.20;;;;;;;;;;5066894;28;20049;-57
2022/06/06 01:50:41;;;;;;;17.48;11.30;;;;;;;;;;5053295;28;20106;-55
2022/06/06 01:53:09;;;;;;;18.80;10.75;;;;;;;;;;5063206;28;20174;-55
2022/06/06 01:55:36;;;;;;;18.75;10.63;;;;;;;;;;5082114;22;20027;-55
2022/06/06 01:58:04;;;;;;;21.27;10.85;;;;;;;;;;5093430;22;20416;-55
2022/06/06 02:00:32;;;;;;;20.38;9.77;;;;;;;;;;5091748;28;20050;-55
2022/06/06 02:02:58;;;;;;;16.92;10.20;;;;;;;;;;5080666;28;20491;-55
2022/06/06 02:05:24;;;;;;;21.20;10.05;;;;;;;;;;5087460;28;20369;-56
2022/06/06 02:07:51;;;;;;;20.67;9.15;;;;;;;;;;5089578;28;20119;-56
2022/06/06 02:10:18;;;;;;;24.27;10.02;;;;;;;;;;5090044;28;20044;-56
2022/06/06 02:12:44;;;;;;;16.52;8.00;;;;;;;;;;5093221;28;20109;-56
2022/06/06 02:15:11;;;;;;;14.88;7.68;;;;;;;;;;5091126;28;20054;-55
2022/06/06 02:17:37;;;;;;;12.23;8.07;;;;;;;;;;5091958;28;20044;-56
2022/06/06 02:20:05;;;;;;;15.07;8.13;;;;;;;;;;5092847;28;20094;-56
2022/06/06 02:22:31;;;;;;;16.52;8.25;;;;;;;;;;5090779;28;20496;-55
2022/06/06 02:24:58;;;;;;;14.35;7.85;;;;;;;;;;5091365;28;20052;-56
2022/06/06 02:27:23;;;;;;;15.85;8.23;;;;;;;;;;5092524;28;20046;-56
2022/06/06 02:29:49;;;;;;;15.68;8.20;;;;;;;;;;5093074;28;20115;-56
2022/06/06 02:32:15;;;;;;;15.93;9.30;;;;;;;;;;5089694;28;20483;-55
2022/06/06 02:34:41;;;;;;;18.42;10.90;;;;;;;;;;5092903;28;20047;-55
2022/06/06 02:37:08;;;;;;;21.35;12.32;;;;;;;;;;5084059;28;20127;-55
2022/06/06 02:39:34;;;;;;;20.67;13.65;;;;;;;;;;5092744;28;20048;-55
2022/06/06 02:42:00;;;;;;;20.70;13.35;;;;;;;;;;5091662;28;20036;-55
2022/06/06 02:44:26;;;;;;;24.70;15.50;;;;;;;;;;5090608;28;20051;-55
2022/06/06 02:46:53;;;;;;;19.65;12.80;;;;;;;;;;5077088;28;20093;-55
2022/06/06 02:49:19;;;;;;;22.52;17.70;;;;;;;;;;5092709;28;20059;-57
2022/06/06 02:51:45;;;;;;;19.85;14.68;;;;;;;;;;5079473;28;20044;-54
2022/06/06 02:54:11;;;;;;;21.17;16.73;;;;;;;;;;5077531;28;20357;-55
2022/06/06 02:56:37;;;;;;;20.20;13.38;;;;;;;;;;5089346;28;20044;-55
2022/06/06 02:59:05;;;;;;;19.60;12.73;;;;;;;;;;5092865;28;20048;-55
2022/06/06 03:01:31;;;;;;;20.05;14.10;;;;;;;;;;5089223;28;20050;-55
2022/06/06 03:03:57;;;;;;;21.52;15.25;;;;;;;;;;5073609;28;20044;-55
2022/06/06 03:06:23;;;;;;;22.42;12.93;;;;;;;;;;5092309;28;20388;-54
2022/06/06 03:08:58;;;;;;;22.38;14.07;;;;;;;;;;5089654;28;20032;-54
2022/06/06 03:11:39;;;;;;;22.25;14.45;;;;;;;;;;5080179;28;20483;-55
2022/06/06 03:14:11;;;;;;;18.13;10.50;;;;;;;;;;5092089;28;20501;-55
2022/06/06 03:22:40;;;;;;;24.58;13.00;;;;;;;;;;5072086;28;20048;-55
2022/06/06 03:25:05;;;;;;;31.20;17.00;;;;;;;;;;5083564;28;20395;-55
2022/06/06 03:27:34;;;;;;;29.63;16.33;;;;;;;;;;5091868;28;20036;-55
2022/06/06 03:30:06;;;;;;;27.40;17.10;;;;;;;;;;5082875;28;20044;-54
2022/06/06 03:33:04;;;;;;;33.80;19.48;;;;;;;;;;5074099;28;20044;-55
2022/06/06 03:35:42;;;;;;;23.50;13.35;;;;;;;;;;5068990;28;20063;-55
2022/06/06 03:38:13;;;;;;;28.73;15.23;;;;;;;;;;5086136;28;20040;-55
2022/06/06 03:41:04;;;;;;;27.33;14.85;;;;;;;;;;5091228;28;20036;-55
2022/06/06 03:43:30;;;;;;;;;;;;;;;;;;5091832;28;20040;-56
2022/06/06 03:46:22;;;;;;;26.52;15.05;;;14.10;99.90;;;;;;5093316;28;19920;-55
2022/06/06 03:49:08;;;;;;;28.85;15.63;;;;;;;;;;5095436;28;20128;-55
2022/06/06 03:51:37;;;;;;;31.15;16.90;;;;;;;;;;5094309;28;20404;-55
2022/06/06 03:54:22;;;;;;;36.88;17.65;;;;;;;;;;5083251;28;20135;-55
2022/06/06 03:56:57;;;;;;;26.02;14.65;;;;;;;;;;5092432;28;20487;-56
2022/06/06 03:59:23;;;;;;;25.42;12.68;;;;;;;;;;5075047;28;20603;-55
2022/06/06 04:01:51;;;;;;;32.50;15.90;;;;;;;;;;5085904;28;20076;-54
2022/06/06 04:04:17;;;;;;;27.02;14.05;;;;;;;;;;5095721;28;20460;-55
2022/06/06 04:06:46;;;;;;;28.98;13.98;;;;;;;;;;5091794;28;20043;-55
2022/06/06 04:09:12;;;;;;;30.88;15.02;;;;;;;;;;5079295;28;20090;-54
2022/06/06 04:11:42;;;;;;;27.33;13.98;;;;;;;;;;5082478;28;20031;-55
2022/06/06 04:14:08;;;;;;;24.70;12.93;;;;;;;;;;5094818;28;20105;-55
2022/06/06 04:16:40;;;;;;;23.05;11.32;;;;;;;;;;5093577;28;20048;-55
2022/06/06 04:19:16;;;;;;;15.10;9.10;;;;;;;;;;5095097;28;20162;-55
2022/06/06 04:21:54;;;;;;;21.75;11.65;;;;;;;;;;5077012;28;20043;-55
2022/06/06 04:24:30;;;;;;;27.42;12.70;;;;;;;;;;5084600;28;20040;-55
2022/06/06 04:26:59;;;;;;;21.63;11.60;;;;;;;;;;5095003;28;20047;-55
2022/06/06 04:29:39;;;;;;;23.95;12.10;;;;;;;;;;5087028;28;20055;-55
2022/06/06 04:32:13;;;;;;;27.85;13.48;;;;;;;;;;5089882;28;20087;-55
2022/06/06 04:34:49;;;;;;;31.40;13.60;;;;;;;;;;5094980;28;20397;-55
2022/06/06 04:37:15;;;;;;;31.38;14.52;;;;;;;;;;5087157;28;20109;-55
2022/06/06 04:40:03;;;;;;;33.30;15.27;;;;;;;;;;5094006;28;20048;-55
2022/06/06 04:42:42;;;;;;;30.42;13.55;;;;;;;;;;5094245;28;20043;-54
2022/06/06 04:45:17;;;;;;;32.85;16.10;;;;;;;;;;5094707;28;20122;-55
2022/06/06 04:47:43;;;;;;;31.02;15.07;;;;;;;;;;5093518;28;20032;-54
2022/06/06 04:50:11;;;;;;;24.52;12.27;;;;;;;;;;5093523;28;20040;-55
2022/06/06 04:52:39;;;;;;;21.13;9.10;;;;;;;;;;5091131;28;20028;-56
2022/06/06 04:55:06;;;;;;;25.35;12.48;;;;;;;;;;5068906;28;20083;-55
2022/06/06 04:57:34;;;;;;;23.75;10.27;;;;;;;;;;5088471;28;20471;-56
2022/06/06 05:00:01;;;;;;;22.20;12.02;;;;;;;;;;5094699;28;20051;-56
2022/06/06 05:02:27;;;;;;;22.80;10.18;;;;;;;;;;5078783;28;20076;-55
2022/06/06 05:04:53;;;;;;;23.05;10.75;;;;;;;;;;5089461;28;20048;-56
2022/06/06 05:07:46;;;;;;;26.33;12.95;;;13.70;99.90;;;;;;5084918;28;20032;-55
2022/06/06 05:10:16;;;;;;;23.50;12.48;;;;;;;;;;5094257;28;20035;-55
2022/06/06 05:13:00;;;;;;;19.73;11.60;;;;;;;;;;5092012;28;20116;-56
2022/06/06 05:15:38;;;;;;;23.70;12.88;;;;;;;;;;5093994;28;20749;-55
2022/06/06 05:18:23;;;;;;;19.85;11.57;;;;;;;;;;5082527;28;20044;-56
2022/06/06 05:20:49;;;;;;;20.80;11.32;;;;;;;;;;5076581;28;20553;-55
2022/06/06 05:23:22;;;;;;;23.17;12.02;;;;;;;;;;5094189;28;20036;-53
2022/06/06 05:25:51;;;;;;;20.63;12.63;;;;;;;;;;5073838;28;20591;-54
2022/06/06 05:28:23;;;;;;;21.60;12.48;;;;;;;;;;5085887;28;20050;-54
2022/06/06 05:30:57;;;;;;;16.55;10.15;;;;;;;;;;5087087;28;20036;-56
2022/06/06 05:33:33;;;;;;;21.88;12.48;;;;;;;;;;5077350;28;20050;-56
2022/06/06 05:36:17;;;;;;;19.73;12.25;;;;;;;;;;5085366;28;20077;-56
2022/06/06 05:38:50;;;;;;;21.00;13.15;;;;;;;;;;5087464;28;20032;-56
2022/06/06 05:41:24;;;;;;;17.30;9.70;;;;;;;;;;5096134;28;20039;-55
2022/06/06 05:43:59;;;;;;;20.73;9.30;;;;;;;;;;5105203;28;20042;-56
2022/06/06 05:46:39;;;;;;;12.68;7.40;;;;;;;;;;5097520;28;20397;-56
2022/06/06 05:49:20;;;;;;;12.35;6.10;;;;;;;;;;5075906;28;20066;-55
2022/06/06 05:51:55;;;;;;;11.93;6.97;;;;;;;;;;5093305;28;20464;-56
2022/06/06 05:54:35;;;;;;;8.48;5.82;;;;;;;;;;5092088;28;20055;-56
2022/06/06 05:57:12;;;;;;;8.63;6.10;;;;;;;;;;5100493;28;20054;-55
2022/06/06 05:59:53;;;;;;;10.68;5.28;;;;;;;;;;5087986;28;20040;-55
2022/06/06 06:02:19;;;;;;;12.73;6.97;;;;;;;;;;5093215;28;20086;-57
2022/06/06 06:04:58;;;;;;;11.40;6.22;;;;;;;;;;5093296;28;20078;-54
2022/06/06 06:08:26;;;;;;;12.10;6.70;;;14.00;99.90;;;;;;5092179;28;20047;-55
2022/06/06 06:11:01;;;;;;;12.10;5.50;;;;;;;;;;5022103;28;20292;-55
2022/06/06 06:13:36;;;;;;;13.65;7.35;;;;;;;;;;5040443;22;20083;-55
2022/06/06 06:16:04;;;;;;;12.48;7.05;;;;;;;;;;5076895;22;20083;-56
2022/06/06 06:18:37;;;;;;;11.30;6.93;;;;;;;;;;5032156;28;20057;-55
2022/06/06 06:21:13;;;;;;;12.35;6.97;;;;;;;;;;5032808;28;20049;-55
2022/06/06 06:23:51;;;;;;;11.63;7.72;;;;;;;;;;5032924;28;20049;-55
2022/06/06 06:26:17;;;;;;;12.23;7.50;;;;;;;;;;5014966;28;20049;-55
2022/06/06 06:28:44;;;;;;;9.90;6.82;;;;;;;;;;5015402;28;20079;-55
2022/06/06 06:31:13;;;;;;;12.57;7.10;;;;;;;;;;5024035;28;20382;-55
2022/06/06 06:33:49;;;;;;;15.15;7.18;;;;;;;;;;5032863;28;20057;-56
2022/06/06 06:36:21;;;;;;;13.70;7.30;;;;;;;;;;5032849;28;20061;-55
2022/06/06 06:39:03;;;;;;;10.10;6.30;;;;;;;;;;5007807;28;20050;-55
2022/06/06 06:41:29;;;;;;;16.95;6.32;;;;;;;;;;5012765;28;20099;-55
2022/06/06 06:44:11;;;;;;;12.85;6.18;;;;;;;;;;5012700;28;20050;-55
2022/06/06 06:46:42;;;;;;;11.45;6.15;;;;;;;;;;5040085;28;20050;-55
2022/06/06 06:49:11;;;;;;;;;;;15.00;99.90;;;;;;5015323;28;20077;-55
2022/06/06 06:51:52;;;;;;;14.32;5.40;;;;;;;;;;5032408;28;20021;-56
2022/06/06 06:54:28;;;;;;;12.93;4.80;;;;;;;;;;5013243;28;20045;-56
2022/06/06 06:57:12;;;;;;;12.40;5.97;;;15.10;99.90;;;;;;5031327;28;20045;-56
2022/06/06 07:00:03;;;;;;;9.23;4.65;;;;;;;;;;5032209;28;20103;-54
2022/06/06 07:10:52;;;;;;;8.05;3.88;;;;;;;;;;5038417;28;20048;-57
2022/06/06 07:13:38;;;;;;;6.78;3.72;;;;;;;;;;5031742;28;20041;-55
2022/06/06 07:16:19;;;;;;;6.22;3.45;;;;;;;;;;5013295;28;20045;-55
2022/06/06 07:18:46;;;;;;;7.50;3.92;;;;;;;;;;5033214;28;20084;-56
2022/06/06 07:21:13;;;;;;;7.25;4.57;;;;;;;;;;5030303;28;20049;-56
2022/06/06 07:23:41;;;;;;;9.95;5.72;;;;;;;;;;5001685;28;20045;-56
2022/06/06 07:26:11;;;;;;;11.82;5.85;;;;;;;;;;5021910;28;20096;-56
2022/06/06 07:28:37;;;;;;;10.02;4.32;;;;;;;;;;5025216;28;20382;-55
2022/06/06 07:31:12;;;;;;;8.15;4.60;;;;;;;;;;5032775;28;20045;-57
2022/06/06 07:33:50;;;;;;;9.07;5.60;;;;;;;;;;5021773;28;20393;-56
2022/06/06 07:36:35;;;;;;;17.95;7.38;;;;;;;;;;5016332;28;20029;-56
2022/06/06 07:39:12;;;;;;;13.82;7.32;;;;;;;;;;5031065;28;20087;-56
2022/06/06 07:41:45;;;;;;;12.93;6.82;;;;;;;;;;5024568;28;20103;-57
2022/06/06 07:44:32;;;;;;;12.23;6.03;;;;;;;;;;5026621;28;20072;-56
2022/06/06 07:46:58;;;;;;;10.63;4.57;;;;;;;;;;5024587;28;20123;-56
2022/06/06 07:49:35;;;;;;;7.63;3.35;;;;;;;;;;5027325;28;20725;-57
2022/06/06 07:52:09;;;;;;;11.38;4.70;;;;;;;;;;5027139;28;20505;-57
2022/06/06 07:54:35;;;;;;;10.02;4.63;;;;;;;;;;5026398;28;20048;-56
2022/06/06 07:57:06;;;;;;;9.27;3.55;;;;;;;;;;5025144;28;20059;-56
2022/06/06 07:59:39;;;;;;;9.65;4.03;;;;;;;;;;5025639;28;20425;-57
2022/06/06 08:02:42;;;;;;;7.65;3.85;;;15.20;99.90;;;;;;5028911;28;20042;-56
2022/06/06 08:05:22;;;;;;;9.07;4.13;;;;;;;;;;5016787;28;20058;-56
2022/06/06 08:08:01;;;;;;;12.05;4.28;;;;;;;;;;5038337;28;20103;-56
2022/06/06 08:10:33;;;;;;;10.35;5.22;;;;;;;;;;5016179;28;20045;-56
2022/06/06 08:13:10;;;;;;;7.78;3.55;;;;;;;;;;5031050;28;20041;-56
2022/06/06 08:15:42;;;;;;;8.48;3.72;;;;;;;;;;5030432;28;20045;-56
2022/06/06 08:18:28;;;;;;;6.10;3.63;;;;;;;;;;5029464;28;20049;-56
2022/06/06 08:21:03;;;;;;;9.50;3.50;;;;;;;;;;5026260;28;20446;-56
2022/06/06 08:23:32;;;;;;;6.15;3.17;;;;;;;;;;5029447;28;20091;-57
2022/06/06 08:25:59;;;;;;;5.50;2.78;;;;;;;;;;5015439;28;20049;-56
2022/06/06 08:28:26;;;;;;;7.13;3.20;;;;;;;;;;5034551;28;20049;-56
2022/06/06 08:30:52;;;;;;;8.50;2.78;;;;;;;;;;5029395;28;20130;-56
2022/06/06 08:33:18;;;;;;;5.22;2.63;;;;;;;;;;5034289;28;20049;-57
2022/06/06 08:35:46;;;;;;;12.00;3.60;;;;;;;;;;5032745;28;20397;-56
2022/06/06 08:38:22;;;;;;;5.97;2.90;;;;;;;;;;5034388;28;20089;-56
2022/06/06 08:40:51;;;;;;;8.45;3.00;;;;;;;;;;5034055;28;20049;-56
2022/06/06 08:43:20;;;;;;;7.70;2.13;;;;;;;;;;5034525;28;20237;-56
2022/06/06 08:45:52;;;;;;;7.93;2.47;;;;;;;;;;5030944;28;20041;-56
2022/06/06 08:48:24;;;;;;;6.20;2.20;;;;;;;;;;5034344;28;20091;-56
2022/06/06 08:50:53;;;;;;;6.85;1.80;;;;;;;;;;5033394;28;20045;-56
2022/06/06 08:53:25;;;;;;;6.30;2.20;;;;;;;;;;5034346;28;20041;-56
2022/06/06 08:56:02;;;;;;;6.55;1.95;;;;;;;;;;5033073;28;20406;-56
2022/06/06 08:59:06;;;;;;;5.97;2.15;;;17.80;99.90;;;;;;5033586;28;20429;-56
2022/06/06 09:01:43;;;;;;;5.32;1.63;;;;;;;;;;4965402;28;20057;-55
2022/06/06 09:04:21;;;;;;;4.85;1.42;;;;;;;;;;4976473;28;20050;-56
2022/06/06 09:07:07;;;;;;;15.55;2.58;;;18.10;99.90;;;;;;4975471;28;20080;-57
2022/06/06 09:09:51;;;;;;;7.30;2.08;;;18.10;99.90;;;;;;4992156;28;20479;-56
2022/06/06 09:12:37;;;;;;;7.75;2.00;;;;;;;;;;4974136;28;20507;-57
2022/06/06 09:15:19;;;;;;;4.72;1.60;;;;;;;;;;4937826;28;20197;-56
2022/06/06 09:17:57;;;;;;;3.63;1.35;;;;;;;;;;4991305;28;20046;-56
2022/06/06 09:20:26;;;;;;;5.35;1.23;;;;;;;;;;4976178;28;20062;-57
2022/06/06 09:22:52;;;;;;;2.97;1.10;;;;;;;;;;4974890;28;20045;-56
2022/06/06 09:25:55;;;;;;;4.78;1.20;;;18.00;99.90;;;;;;4992061;28;20062;-56
2022/06/06 09:28:39;;;;;;;9.00;1.48;;;18.20;99.90;;;;;;4939873;28;20054;-56
2022/06/06 09:31:05;;;;;;;2.88;1.15;;;;;;;;;;4956475;28;20106;-56
2022/06/06 09:33:49;;;;;;;7.60;2.20;;;;;;;;;;5009421;28;20046;-56
2022/06/06 09:36:23;;;;;;;4.68;1.30;;;;;;;;;;5014010;28;20207;-56
2022/06/06 09:38:56;;;;;;;2.92;1.30;;;;;;;;;;4987991;28;20129;-57
2022/06/06 09:41:22;;;;;;;2.63;0.90;;;;;;;;;;5011616;28;20450;-55
2022/06/06 09:43:54;;;;;;;4.03;0.80;;;;;;;;;;4996408;28;20478;-56
2022/06/06 09:46:20;;;;;;;4.78;1.05;;;;;;;;;;5007043;28;20038;-56
2022/06/06 09:48:49;;;;;;;6.03;1.33;;;;;;;;;;5012454;28;20112;-56
2022/06/06 09:51:18;;;;;;;4.20;1.40;;;;;;;;;;4998326;28;20193;-56
2022/06/06 09:53:45;;;;;;;3.40;1.00;;;;;;;;;;4993564;28;20053;-57
2022/06/06 09:59:42;;;;;;;3.75;0.82;;;;;;;;;;4878677;29;20067;-56
2022/06/06 10:02:32;;;;;;;3.05;0.88;;;19.30;99.90;;;;;;4895577;29;20131;-56
2022/06/06 10:05:01;;;;;;;3.08;0.90;;;;;;;;;;4894907;29;20056;-56
2022/06/06 10:07:45;;;;;;;2.67;0.73;;;;;;;;;;4993567;22;20103;-56
2022/06/06 10:10:17;;;;;;;4.40;0.95;;;;;;;;;;5070077;28;20072;-56
2022/06/06 10:12:59;;;;;;;6.55;1.10;;;;;;;;;;5054936;28;20052;-56
2022/06/06 10:15:26;;;;;;;3.40;1.15;;;;;;;;;;5032816;28;20568;-56
2022/06/06 10:18:10;;;;;;;2.78;0.80;;;20.20;99.90;;;;;;5032624;28;20096;-58
2022/06/06 10:20:41;;;;;;;8.50;0.98;;;20.10;99.90;;;;;;5015083;28;20053;-55
2022/06/06 10:23:07;;;;;;;6.28;0.80;;;;;;;;;;5046386;28;20072;-55
2022/06/06 10:25:33;;;;;;;7.70;1.20;;;;;;;;;;5052158;28;20424;-55
2022/06/06 10:27:59;;;;;;;3.20;0.93;;;;;;;;;;5049952;28;20517;-55
2022/06/06 10:30:38;;;;;;;3.47;0.80;;;;;;;;;;5034625;28;20436;-56
2022/06/06 10:33:23;;;;;;;2.47;0.73;;;;;;;;;;5034066;28;20041;-57
2022/06/06 10:36:02;;;;;;;2.67;0.80;;;;;;;;;;5052648;28;20086;-56
2022/06/06 10:38:37;;;;;;;4.05;0.73;;;;;;;;;;5061897;28;20044;-56
2022/06/06 10:41:18;;;;;;;4.65;1.00;;;;;;;;;;5072617;28;20412;-55
2022/06/06 10:44:12;;;;;;;7.28;0.95;;;;;;;;;;5058313;28;20041;-56
2022/06/06 10:46:48;;;;;;;4.05;0.90;;;;;;;;;;5015077;28;20057;-56
2022/06/06 10:49:41;;;;;;;4.53;1.05;;;18.50;99.90;;;;;;5043299;28;20049;-56
2022/06/06 10:52:22;;;;;;;4.20;0.60;;;;;;;;;;5043864;28;20045;-56
2022/06/06 10:54:54;;;;;;;4.82;0.98;;;;;;;;;;5018912;28;20049;-56
2022/06/06 10:57:23;;;;;;;4.13;1.23;;;;;;;;;;5050265;28;20123;-55
2022/06/06 10:59:52;;;;;;;4.07;0.82;;;;;;;;;;5056447;28;20146;-56
2022/06/06 11:02:32;;;;;;;3.70;0.80;;;;;;;;;;5055482;28;20378;-55
2022/06/06 11:05:01;;;;;;;3.35;1.00;;;;;;;;;;5056688;28;20045;-56
2022/06/06 11:07:48;;;;;;;5.25;1.02;;;;;;;;;;5068988;28;20060;-56
2022/06/06 11:10:23;;;;;;;4.93;1.00;;;;;;;;;;5058606;28;20101;-56
2022/06/06 11:12:49;;;;;;;4.05;1.20;;;;;;;;;;5057587;28;20045;-56
2022/06/06 11:15:15;;;;;;;6.30;1.65;;;;;;;;;;5038482;28;20128;-56
2022/06/06 11:18:10;;;;;;;6.22;1.63;;;20.20;99.90;;;;;;5037099;28;20124;-56
2022/06/06 11:20:36;;;;;;;6.32;1.80;;;;;;;;;;5054937;28;20186;-56
2022/06/06 11:23:13;;;;;;;5.10;1.70;;;;;;;;;;5055494;28;20041;-56
2022/06/06 11:25:57;;;;;;;5.95;1.50;;;;;;;;;;5056154;28;20488;-56
2022/06/06 11:28:29;;;;;;;7.30;1.58;;;;;;;;;;5054429;28;20547;-56
2022/06/06 11:31:10;;;;;;;7.88;2.10;;;;;;;;;;5055898;28;20041;-56
2022/06/06 11:34:13;;;;;;;5.93;1.88;;;18.10;99.90;;;;;;5055573;28;20095;-56
2022/06/06 11:36:52;;;;;;;5.57;1.75;;;;;;;;;;5054903;28;20076;-56
2022/06/06 11:40:02;;;;;;;3.47;1.63;;;18.20;99.90;;;;;;5038004;28;20060;-56
2022/06/06 11:42:37;;;;;;;3.67;1.55;;;;;;;;;;5034389;28;20150;-57
2022/06/06 11:45:06;;;;;;;5.55;2.08;;;;;;;;;;5058165;28;20071;-56
2022/06/06 11:48:05;;;;;;;7.85;2.05;;;17.70;99.90;;;;;;5035603;28;20049;-56
2022/06/06 11:50:42;;;;;;;6.15;1.50;;;;;;;;;;5041254;28;20044;-56
2022/06/06 11:53:27;;;;;;;4.13;1.67;;;;;;;;;;5058347;28;20075;-56
2022/06/06 11:56:09;;;;;;;10.43;1.95;;;;;;;;;;5075221;28;20048;-56
2022/06/06 11:58:52;;;;;;;4.22;1.30;;;;;;;;;;5046395;28;20056;-56
2022/06/06 12:01:24;;;;;;;5.10;1.40;;;;;;;;;;5037832;28;20071;-56
2022/06/06 12:04:02;;;;;;;6.22;1.38;;;;;;;;;;5066420;28;20048;-55
2022/06/06 12:06:28;;;;;;;8.73;1.88;;;;;;;;;;5075257;28;20052;-56
2022/06/06 12:08:54;;;;;;;5.43;1.42;;;;;;;;;;5061003;28;20048;-56
2022/06/06 12:11:54;;;;;;;8.35;1.70;;;17.20;99.90;;;;;;5055333;28;20056;-56
2022/06/06 12:14:38;;;;;;;7.73;1.97;;;;;;;;;;5036624;28;20053;-56
2022/06/06 12:17:27;;;;;;;5.65;1.70;;;;;;;;;;5035917;28;20550;-55
2022/06/06 12:19:56;;;;;;;8.13;2.40;;;;;;;;;;5055132;28;20063;-55
2022/06/06 12:22:22;;;;;;;7.38;1.52;;;;;;;;;;5019369;28;20041;-55
2022/06/06 12:24:48;;;;;;;4.85;1.70;;;;;;;;;;5017359;28;20037;-56
2022/06/06 12:27:28;;;;;;;4.30;2.17;;;;;;;;;;5050932;28;20558;-55
2022/06/06 12:29:54;;;;;;;2.90;2.03;;;;;;;;;;5037261;28;20053;-57
2022/06/06 12:32:45;;;;;;;4.75;2.30;;;15.60;99.90;;;;;;5052562;28;20503;-56
2022/06/06 12:35:14;;;;;;;6.43;2.35;;;;;;;;;;5054570;28;20057;-56
2022/06/06 12:37:46;;;;;;;7.55;2.50;;;;;;;;;;5054427;28;20098;-56
2022/06/06 12:40:44;;;;;;;9.27;2.65;;;15.60;99.90;;;;;;5054511;28;20056;-56
2022/06/06 12:43:17;;;;;;;7.63;2.50;;;;;;;;;;5053880;28;20040;-56
2022/06/06 12:45:58;;;;;;;5.22;2.53;;;;;;;;;;5053841;28;20053;-56
2022/06/06 12:48:33;;;;;;;4.43;2.58;;;;;;;;;;5054317;28;20511;-56
2022/06/06 12:51:12;;;;;;;5.25;2.20;;;;;;;;;;5053832;28;20073;-56
2022/06/06 12:53:54;;;;;;;6.68;2.10;;;;;;;;;;5054477;28;20053;-56
2022/06/06 12:56:36;;;;;;;6.40;2.50;;;;;;;;;;5053562;28;20099;-56
2022/06/06 12:59:31;;;;;;;4.80;2.67;;;15.90;99.90;;;;;;5035843;28;20053;-56
2022/06/06 13:01:57;;;;;;;7.60;3.20;;;;;;;;;;5074136;28;20046;-57
2022/06/06 13:04:42;;;;;;;10.38;3.45;;;;;;;;;;5050039;28;20081;-57
2022/06/06 13:07:26;;;;;;;8.25;3.28;;;;;;;;;;5033945;28;20057;-57
2022/06/06 13:10:01;;;;;;;6.38;2.75;;;;;;;;;;5050545;28;20095;-56
2022/06/06 13:12:27;;;;;;;5.65;2.97;;;;;;;;;;5052712;28;20131;-56
2022/06/06 13:14:53;;;;;;;6.30;3.25;;;;;;;;;;5053787;28;20055;-56
2022/06/06 13:17:30;;;;;;;5.90;3.88;;;;;;;;;;5052919;28;20056;-56
2022/06/06 13:20:03;;;;;;;5.78;3.95;;;;;;;;;;5035931;28;20599;-55
2022/06/06 13:22:55;;;;;;;6.28;4.40;;;;;;;;;;5053199;28;20538;-55
2022/06/06 13:25:44;;;;;;;9.00;4.88;;;;;;;;;;5033756;28;20500;-57
2022/06/06 13:28:12;;;;;;;6.60;4.45;;;;;;;;;;5040443;28;20053;-57
2022/06/06 13:30:47;;;;;;;7.03;4.05;;;;;;;;;;5053320;28;20045;-57
2022/06/06 13:33:19;;;;;;;5.07;3.03;;;;;;;;;;5035077;28;20441;-56
2022/06/06 13:35:54;;;;;;;4.90;2.58;;;;;;;;;;5052592;28;20183;-56
2022/06/06 13:38:26;;;;;;;4.93;3.50;;;;;;;;;;5052222;28;20126;-57
2022/06/06 13:41:20;;;;;;;6.20;3.15;;;15.30;99.90;;;;;;5035240;28;20106;-57
2022/06/06 13:43:55;;;;;;;4.93;3.00;;;;;;;;;;5052611;28;20479;-56
2022/06/06 13:46:33;;;;;;;5.57;2.90;;;;;;;;;;5053397;28;20045;-56
2022/06/06 13:49:15;;;;;;;6.45;2.90;;;;;;;;;;5035162;28;20041;-56
2022/06/06 13:51:41;;;;;;;5.18;2.90;;;;;;;;;;5052759;28;20139;-56
2022/06/06 13:54:08;;;;;;;5.43;3.25;;;;;;;;;;5053371;28;20128;-56
2022/06/06 13:56:43;;;;;;;5.65;2.75;;;;;;;;;;5058428;28;20072;-56
2022/06/06 13:59:16;;;;;;;7.53;3.85;;;;;;;;;;5059051;28;20049;-56
2022/06/06 14:01:45;;;;;;;5.43;3.40;;;;;;;;;;5053232;28;20118;-56
2022/06/06 14:04:35;;;;;;;7.20;2.70;;;;;;;;;;5051139;28;20162;-56
2022/06/06 14:07:16;;;;;;;6.47;2.45;;;;;;;;;;5034729;28;20099;-57
2022/06/06 14:09:44;;;;;;;5.72;2.72;;;;;;;;;;5052071;28;20063;-57
2022/06/06 14:12:22;;;;;;;3.63;2.22;;;;;;;;;;5052967;28;20122;-57
2022/06/06 14:14:50;;;;;;;8.00;2.53;;;;;;;;;;5064224;28;20125;-58
2022/06/06 14:17:25;;;;;;;5.15;2.83;;;;;;;;;;5072828;28;20056;-57
2022/06/06 14:19:54;;;;;;;5.55;2.70;;;;;;;;;;5054884;28;20068;-57
2022/06/06 14:22:26;;;;;;;5.63;2.50;;;;;;;;;;5052794;28;20048;-57
2022/06/06 14:24:54;;;;;;;6.78;2.45;;;;;;;;;;5052248;28;20057;-57
2022/06/06 14:27:21;;;;;;;8.20;3.30;;;;;;;;;;5052659;28;20615;-56
2022/06/06 14:29:53;;;;;;;9.95;3.30;;;;;;;;;;5033317;28;20148;-56
2022/06/06 14:32:25;;;;;;;6.15;3.25;;;;;;;;;;5052451;28;20052;-56
2022/06/06 14:34:56;;;;;;;4.75;2.50;;;;;;;;;;5052128;28;20052;-56
2022/06/06 14:37:35;;;;;;;4.43;2.08;;;;;;;;;;5052639;28;20135;-56
2022/06/06 14:40:03;;;;;;;4.32;1.80;;;;;;;;;;5051711;28;20041;-56
2022/06/06 14:42:32;;;;;;;4.60;2.05;;;;;;;;;;5051852;28;20079;-56
2022/06/06 14:45:08;;;;;;;5.32;2.22;;;;;;;;;;5049579;28;20436;-56
2022/06/06 14:47:36;;;;;;;4.25;1.80;;;;;;;;;;5033061;28;20100;-56
2022/06/06 14:53:03;;;;;;;3.40;1.40;;;;;;;;;;5051707;28;20045;-56
2022/06/06 14:55:31;;;;;;;2.13;1.13;;;;;;;;;;5052243;28;20049;-56
2022/06/06 14:57:58;;;;;;;4.47;1.13;;;;;;;;;;5052078;28;20056;-56
2022/06/06 15:00:31;;;;;;;0.80;0.60;;;;;;;;;;5034647;28;20045;-56
2022/06/06 15:03:05;;;;;;;5.10;1.35;;;;;;;;;;5056756;28;20080;-56
2022/06/06 15:05:32;;;;;;;2.55;1.08;;;;;;;;;;5034174;28;20405;-56
2022/06/06 15:08:00;;;;;;;2.83;1.67;;;;;;;;;;5032307;28;20103;-56
2022/06/06 15:10:33;;;;;;;3.35;1.00;;;;;;;;;;5030552;28;20136;-56
2022/06/06 15:12:59;;;;;;;4.10;1.20;;;;;;;;;;5065189;28;20458;-57
2022/06/06 15:15:29;;;;;;;2.47;1.13;;;;;;;;;;5033824;28;20103;-56
2022/06/06 15:17:55;;;;;;;5.25;1.10;;;;;;;;;;5034303;28;20508;-57
2022/06/06 15:20:23;;;;;;;1.50;1.00;;;;;;;;;;5051452;28;20084;-56
2022/06/06 15:22:50;;;;;;;4.05;1.30;;;;;;;;;;5052453;28;20045;-56
2022/06/06 15:25:21;;;;;;;5.30;1.38;;;;;;;;;;5071105;28;20052;-56